sensor_id;sensor_type;location;lat;lon;timestamp;P1;durP1;ratioP1;P2;durP2;ratioP2
82926;SDS011;72788;40.218;44.486;2023-11-21T00:02:13;7.78;;;3.00;;
82926;SDS011;72788;40.218;44.486;2023-11-21T00:04:39;7.30;;;2.63;;
82926;SDS011;72788;40.218;44.486;2023-11-21T00:07:04;9.15;;;3.40;;
82926;SDS011;72788;40.218;44.486;2023-11-21T00:09:31;8.20;;;3.30;;
82926;SDS011;72788;40.218;44.486;2023-11-21T00:11:57;9.68;;;3.75;;
82926;SDS011;72788;40.218;44.486;2023-11-21T00:14:25;7.82;;;3.42;;
82926;SDS011;72788;40.218;44.486;2023-11-21T00:16:50;9.90;;;3.65;;
82926;SDS011;72788;40.218;44.486;2023-11-21T00:19:16;9.90;;;3.33;;
82926;SDS011;72788;40.218;44.486;2023-11-21T00:21:42;8.98;;;3.65;;
82926;SDS011;72788;40.218;44.486;2023-11-21T00:24:09;15.00;;;3.53;;
82926;SDS011;72788;40.218;44.486;2023-11-21T00:26:35;10.02;;;3.80;;
82926;SDS011;72788;40.218;44.486;2023-11-21T00:29:04;11.50;;;4.13;;
82926;SDS011;72788;40.218;44.486;2023-11-21T00:31:33;9.52;;;3.83;;
82926;SDS011;72788;40.218;44.486;2023-11-21T00:33:58;8.48;;;4.28;;
82926;SDS011;72788;40.218;44.486;2023-11-21T00:36:24;10.10;;;4.03;;
82926;SDS011;72788;40.218;44.486;2023-11-21T00:38:51;7.72;;;3.15;;
82926;SDS011;72788;40.218;44.486;2023-11-21T00:41:16;6.95;;;2.40;;
82926;SDS011;72788;40.218;44.486;2023-11-21T00:43:42;8.02;;;2.55;;
82926;SDS011;72788;40.218;44.486;2023-11-21T00:46:09;8.23;;;2.63;;
82926;SDS011;72788;40.218;44.486;2023-11-21T00:48:34;7.13;;;2.58;;
82926;SDS011;72788;40.218;44.486;2023-11-21T00:51:00;11.50;;;2.90;;
82926;SDS011;72788;40.218;44.486;2023-11-21T00:53:26;8.32;;;3.00;;
82926;SDS011;72788;40.218;44.486;2023-11-21T00:55:51;8.80;;;2.90;;
82926;SDS011;72788;40.218;44.486;2023-11-21T00:58:22;9.75;;;2.75;;
82926;SDS011;72788;40.218;44.486;2023-11-21T01:00:51;11.00;;;3.20;;
82926;SDS011;72788;40.218;44.486;2023-11-21T01:03:16;8.95;;;3.00;;
82926;SDS011;72788;40.218;44.486;2023-11-21T01:05:42;7.78;;;2.55;;
82926;SDS011;72788;40.218;44.486;2023-11-21T01:08:08;8.82;;;3.67;;
82926;SDS011;72788;40.218;44.486;2023-11-21T01:10:34;9.23;;;3.10;;
82926;SDS011;72788;40.218;44.486;2023-11-21T01:13:00;8.35;;;3.08;;
82926;SDS011;72788;40.218;44.486;2023-11-21T01:15:25;8.45;;;2.97;;
82926;SDS011;72788;40.218;44.486;2023-11-21T01:17:51;10.82;;;4.53;;
82926;SDS011;72788;40.218;44.486;2023-11-21T01:20:17;9.00;;;3.78;;
82926;SDS011;72788;40.218;44.486;2023-11-21T01:22:43;10.40;;;3.72;;
82926;SDS011;72788;40.218;44.486;2023-11-21T01:25:09;10.90;;;4.50;;
82926;SDS011;72788;40.218;44.486;2023-11-21T01:27:35;10.95;;;3.97;;
82926;SDS011;72788;40.218;44.486;2023-11-21T01:30:05;10.70;;;4.13;;
82926;SDS011;72788;40.218;44.486;2023-11-21T01:32:32;10.05;;;4.20;;
82926;SDS011;72788;40.218;44.486;2023-11-21T01:34:59;10.40;;;4.22;;
82926;SDS011;72788;40.218;44.486;2023-11-21T01:37:25;9.63;;;4.07;;
82926;SDS011;72788;40.218;44.486;2023-11-21T01:39:53;10.32;;;3.63;;
82926;SDS011;72788;40.218;44.486;2023-11-21T01:42:22;12.05;;;4.35;;
82926;SDS011;72788;40.218;44.486;2023-11-21T01:44:48;12.43;;;5.47;;
82926;SDS011;72788;40.218;44.486;2023-11-21T01:47:14;12.65;;;4.65;;
82926;SDS011;72788;40.218;44.486;2023-11-21T01:49:42;11.00;;;4.20;;
82926;SDS011;72788;40.218;44.486;2023-11-21T01:52:10;10.90;;;4.25;;
82926;SDS011;72788;40.218;44.486;2023-11-21T01:54:37;10.45;;;4.50;;
82926;SDS011;72788;40.218;44.486;2023-11-21T01:57:03;11.15;;;4.35;;
82926;SDS011;72788;40.218;44.486;2023-11-21T01:59:35;10.73;;;4.97;;
82926;SDS011;72788;40.218;44.486;2023-11-21T02:02:02;10.38;;;3.75;;
82926;SDS011;72788;40.218;44.486;2023-11-21T02:04:30;9.80;;;3.80;;
82926;SDS011;72788;40.218;44.486;2023-11-21T02:06:57;10.30;;;3.58;;
82926;SDS011;72788;40.218;44.486;2023-11-21T02:09:24;9.88;;;3.70;;
82926;SDS011;72788;40.218;44.486;2023-11-21T02:11:52;8.75;;;3.33;;
82926;SDS011;72788;40.218;44.486;2023-11-21T02:14:19;10.15;;;3.63;;
82926;SDS011;72788;40.218;44.486;2023-11-21T02:16:47;9.70;;;3.78;;
82926;SDS011;72788;40.218;44.486;2023-11-21T02:19:16;9.73;;;4.03;;
82926;SDS011;72788;40.218;44.486;2023-11-21T02:21:50;11.95;;;3.97;;
82926;SDS011;72788;40.218;44.486;2023-11-21T02:24:23;12.63;;;4.28;;
82926;SDS011;72788;40.218;44.486;2023-11-21T02:26:49;10.85;;;4.05;;
82926;SDS011;72788;40.218;44.486;2023-11-21T02:29:18;9.57;;;3.42;;
82926;SDS011;72788;40.218;44.486;2023-11-21T02:31:47;9.85;;;3.63;;
82926;SDS011;72788;40.218;44.486;2023-11-21T02:34:16;12.35;;;4.63;;
82926;SDS011;72788;40.218;44.486;2023-11-21T02:36:46;9.82;;;3.55;;
82926;SDS011;72788;40.218;44.486;2023-11-21T02:39:14;6.45;;;2.17;;
82926;SDS011;72788;40.218;44.486;2023-11-21T02:41:41;7.97;;;2.47;;
82926;SDS011;72788;40.218;44.486;2023-11-21T02:44:08;8.90;;;3.03;;
82926;SDS011;72788;40.218;44.486;2023-11-21T02:46:34;8.65;;;2.95;;
82926;SDS011;72788;40.218;44.486;2023-11-21T02:49:03;7.63;;;2.55;;
82926;SDS011;72788;40.218;44.486;2023-11-21T02:51:31;8.30;;;3.15;;
82926;SDS011;72788;40.218;44.486;2023-11-21T02:53:57;6.78;;;2.30;;
82926;SDS011;72788;40.218;44.486;2023-11-21T02:56:27;7.45;;;2.35;;
82926;SDS011;72788;40.218;44.486;2023-11-21T02:58:55;7.10;;;2.33;;
82926;SDS011;72788;40.218;44.486;2023-11-21T03:01:21;7.13;;;2.55;;
82926;SDS011;72788;40.218;44.486;2023-11-21T03:03:46;8.32;;;2.88;;
82926;SDS011;72788;40.218;44.486;2023-11-21T03:06:12;6.15;;;2.00;;
82926;SDS011;72788;40.218;44.486;2023-11-21T03:08:38;7.93;;;2.67;;
82926;SDS011;72788;40.218;44.486;2023-11-21T03:11:04;6.28;;;2.30;;
82926;SDS011;72788;40.218;44.486;2023-11-21T03:13:29;6.72;;;2.25;;
82926;SDS011;72788;40.218;44.486;2023-11-21T03:15:55;9.23;;;2.85;;
82926;SDS011;72788;40.218;44.486;2023-11-21T03:18:21;8.25;;;2.88;;
82926;SDS011;72788;40.218;44.486;2023-11-21T03:20:51;8.63;;;2.90;;
82926;SDS011;72788;40.218;44.486;2023-11-21T03:23:17;8.48;;;3.75;;
82926;SDS011;72788;40.218;44.486;2023-11-21T03:25:43;8.15;;;3.22;;
82926;SDS011;72788;40.218;44.486;2023-11-21T03:28:09;9.20;;;3.40;;
82926;SDS011;72788;40.218;44.486;2023-11-21T03:30:34;7.22;;;2.70;;
82926;SDS011;72788;40.218;44.486;2023-11-21T03:33:00;7.30;;;2.40;;
82926;SDS011;72788;40.218;44.486;2023-11-21T03:35:26;7.85;;;2.70;;
82926;SDS011;72788;40.218;44.486;2023-11-21T03:37:52;7.55;;;2.72;;
82926;SDS011;72788;40.218;44.486;2023-11-21T03:40:17;7.70;;;2.70;;
82926;SDS011;72788;40.218;44.486;2023-11-21T03:42:43;10.57;;;2.60;;
82926;SDS011;72788;40.218;44.486;2023-11-21T03:45:09;8.50;;;2.85;;
82926;SDS011;72788;40.218;44.486;2023-11-21T03:47:34;9.20;;;2.88;;
82926;SDS011;72788;40.218;44.486;2023-11-21T03:50:00;7.85;;;2.80;;
82926;SDS011;72788;40.218;44.486;2023-11-21T03:52:26;7.88;;;2.55;;
82926;SDS011;72788;40.218;44.486;2023-11-21T03:54:53;8.70;;;3.05;;
82926;SDS011;72788;40.218;44.486;2023-11-21T03:57:20;7.72;;;2.72;;
82926;SDS011;72788;40.218;44.486;2023-11-21T03:59:46;10.13;;;2.83;;
82926;SDS011;72788;40.218;44.486;2023-11-21T04:02:11;13.13;;;4.32;;
82926;SDS011;72788;40.218;44.486;2023-11-21T04:04:37;9.65;;;3.35;;
82926;SDS011;72788;40.218;44.486;2023-11-21T04:07:03;8.70;;;2.90;;
82926;SDS011;72788;40.218;44.486;2023-11-21T04:09:29;9.23;;;3.00;;
82926;SDS011;72788;40.218;44.486;2023-11-21T04:11:55;7.20;;;2.30;;
82926;SDS011;72788;40.218;44.486;2023-11-21T04:14:22;8.48;;;2.28;;
82926;SDS011;72788;40.218;44.486;2023-11-21T04:16:48;8.60;;;2.50;;
82926;SDS011;72788;40.218;44.486;2023-11-21T04:19:14;8.40;;;2.28;;
82926;SDS011;72788;40.218;44.486;2023-11-21T04:21:40;8.38;;;2.30;;
82926;SDS011;72788;40.218;44.486;2023-11-21T04:24:06;8.55;;;2.30;;
82926;SDS011;72788;40.218;44.486;2023-11-21T04:26:32;6.63;;;2.17;;
82926;SDS011;72788;40.218;44.486;2023-11-21T04:28:58;10.40;;;2.72;;
82926;SDS011;72788;40.218;44.486;2023-11-21T04:31:23;7.95;;;2.63;;
82926;SDS011;72788;40.218;44.486;2023-11-21T04:33:49;8.35;;;2.10;;
82926;SDS011;72788;40.218;44.486;2023-11-21T04:36:15;7.97;;;2.65;;
82926;SDS011;72788;40.218;44.486;2023-11-21T04:38:40;7.90;;;2.33;;
82926;SDS011;72788;40.218;44.486;2023-11-21T04:41:06;7.30;;;2.03;;
82926;SDS011;72788;40.218;44.486;2023-11-21T04:43:32;8.68;;;2.40;;
82926;SDS011;72788;40.218;44.486;2023-11-21T04:45:58;7.97;;;2.13;;
82926;SDS011;72788;40.218;44.486;2023-11-21T04:48:23;7.22;;;2.42;;
82926;SDS011;72788;40.218;44.486;2023-11-21T04:50:50;7.32;;;2.58;;
82926;SDS011;72788;40.218;44.486;2023-11-21T04:53:16;7.80;;;2.20;;
82926;SDS011;72788;40.218;44.486;2023-11-21T04:55:42;7.20;;;2.10;;
82926;SDS011;72788;40.218;44.486;2023-11-21T04:58:09;7.18;;;2.22;;
82926;SDS011;72788;40.218;44.486;2023-11-21T05:00:35;8.95;;;2.17;;
82926;SDS011;72788;40.218;44.486;2023-11-21T05:03:03;9.25;;;2.00;;
82926;SDS011;72788;40.218;44.486;2023-11-21T05:05:30;9.38;;;2.40;;
82926;SDS011;72788;40.218;44.486;2023-11-21T05:07:56;10.13;;;3.13;;
82926;SDS011;72788;40.218;44.486;2023-11-21T05:10:21;9.35;;;3.17;;
82926;SDS011;72788;40.218;44.486;2023-11-21T05:12:47;7.88;;;2.80;;
82926;SDS011;72788;40.218;44.486;2023-11-21T05:15:15;9.73;;;3.20;;
82926;SDS011;72788;40.218;44.486;2023-11-21T05:17:42;8.13;;;2.88;;
82926;SDS011;72788;40.218;44.486;2023-11-21T05:20:12;17.75;;;6.55;;
82926;SDS011;72788;40.218;44.486;2023-11-21T05:22:42;10.73;;;3.83;;
82926;SDS011;72788;40.218;44.486;2023-11-21T05:25:08;8.60;;;3.72;;
82926;SDS011;72788;40.218;44.486;2023-11-21T05:27:35;10.88;;;3.15;;
82926;SDS011;72788;40.218;44.486;2023-11-21T05:30:01;12.90;;;6.00;;
82926;SDS011;72788;40.218;44.486;2023-11-21T05:32:30;8.88;;;3.90;;
82926;SDS011;72788;40.218;44.486;2023-11-21T05:34:56;9.57;;;4.45;;
82926;SDS011;72788;40.218;44.486;2023-11-21T05:37:22;13.50;;;3.78;;
82926;SDS011;72788;40.218;44.486;2023-11-21T05:39:48;12.77;;;3.45;;
82926;SDS011;72788;40.218;44.486;2023-11-21T05:42:14;11.43;;;3.50;;
82926;SDS011;72788;40.218;44.486;2023-11-21T05:44:41;11.27;;;3.70;;
82926;SDS011;72788;40.218;44.486;2023-11-21T05:47:08;10.82;;;3.45;;
82926;SDS011;72788;40.218;44.486;2023-11-21T05:49:34;8.80;;;3.20;;
82926;SDS011;72788;40.218;44.486;2023-11-21T05:52:00;8.35;;;3.13;;
82926;SDS011;72788;40.218;44.486;2023-11-21T05:54:26;9.05;;;2.83;;
82926;SDS011;72788;40.218;44.486;2023-11-21T05:56:51;7.82;;;2.78;;
82926;SDS011;72788;40.218;44.486;2023-11-21T05:59:17;11.63;;;2.83;;
82926;SDS011;72788;40.218;44.486;2023-11-21T06:01:43;7.95;;;2.35;;
82926;SDS011;72788;40.218;44.486;2023-11-21T06:04:11;7.60;;;2.95;;
82926;SDS011;72788;40.218;44.486;2023-11-21T06:06:36;7.30;;;2.80;;
82926;SDS011;72788;40.218;44.486;2023-11-21T06:09:02;10.23;;;2.55;;
82926;SDS011;72788;40.218;44.486;2023-11-21T06:11:28;9.48;;;2.78;;
82926;SDS011;72788;40.218;44.486;2023-11-21T06:13:54;18.23;;;4.15;;
82926;SDS011;72788;40.218;44.486;2023-11-21T06:16:20;17.92;;;3.47;;
82926;SDS011;72788;40.218;44.486;2023-11-21T06:18:46;13.60;;;3.58;;
82926;SDS011;72788;40.218;44.486;2023-11-21T06:21:11;8.30;;;3.00;;
82926;SDS011;72788;40.218;44.486;2023-11-21T06:23:38;10.55;;;3.15;;
82926;SDS011;72788;40.218;44.486;2023-11-21T06:26:04;12.30;;;4.32;;
82926;SDS011;72788;40.218;44.486;2023-11-21T06:28:31;10.75;;;3.80;;
82926;SDS011;72788;40.218;44.486;2023-11-21T06:30:57;12.27;;;3.25;;
82926;SDS011;72788;40.218;44.486;2023-11-21T06:33:23;15.63;;;3.45;;
82926;SDS011;72788;40.218;44.486;2023-11-21T06:35:50;11.25;;;3.50;;
82926;SDS011;72788;40.218;44.486;2023-11-21T06:38:16;21.17;;;4.00;;
82926;SDS011;72788;40.218;44.486;2023-11-21T06:40:42;10.60;;;3.20;;
82926;SDS011;72788;40.218;44.486;2023-11-21T06:43:09;9.95;;;3.53;;
82926;SDS011;72788;40.218;44.486;2023-11-21T06:45:35;10.40;;;3.50;;
82926;SDS011;72788;40.218;44.486;2023-11-21T06:48:00;11.48;;;3.20;;
82926;SDS011;72788;40.218;44.486;2023-11-21T06:50:26;11.85;;;3.85;;
82926;SDS011;72788;40.218;44.486;2023-11-21T06:52:52;27.05;;;4.03;;
82926;SDS011;72788;40.218;44.486;2023-11-21T06:55:17;13.85;;;4.10;;
82926;SDS011;72788;40.218;44.486;2023-11-21T06:57:43;14.02;;;4.00;;
82926;SDS011;72788;40.218;44.486;2023-11-21T07:00:10;14.80;;;4.28;;
82926;SDS011;72788;40.218;44.486;2023-11-21T07:02:36;8.30;;;3.00;;
82926;SDS011;72788;40.218;44.486;2023-11-21T07:05:02;11.60;;;3.25;;
82926;SDS011;72788;40.218;44.486;2023-11-21T07:07:28;9.13;;;3.60;;
82926;SDS011;72788;40.218;44.486;2023-11-21T07:09:54;10.85;;;3.42;;
82926;SDS011;72788;40.218;44.486;2023-11-21T07:12:19;13.05;;;4.50;;
82926;SDS011;72788;40.218;44.486;2023-11-21T07:14:48;11.55;;;3.80;;
82926;SDS011;72788;40.218;44.486;2023-11-21T07:17:14;12.20;;;4.07;;
82926;SDS011;72788;40.218;44.486;2023-11-21T07:19:42;10.48;;;4.00;;
82926;SDS011;72788;40.218;44.486;2023-11-21T07:22:08;10.73;;;4.00;;
82926;SDS011;72788;40.218;44.486;2023-11-21T07:24:34;9.57;;;3.65;;
82926;SDS011;72788;40.218;44.486;2023-11-21T07:27:00;10.95;;;3.85;;
82926;SDS011;72788;40.218;44.486;2023-11-21T07:29:26;13.60;;;4.47;;
82926;SDS011;72788;40.218;44.486;2023-11-21T07:31:54;13.57;;;3.85;;
82926;SDS011;72788;40.218;44.486;2023-11-21T07:34:20;14.30;;;4.13;;
82926;SDS011;72788;40.218;44.486;2023-11-21T07:36:46;7.40;;;3.05;;
82926;SDS011;72788;40.218;44.486;2023-11-21T07:39:12;11.20;;;3.03;;
82926;SDS011;72788;40.218;44.486;2023-11-21T07:41:38;7.85;;;2.92;;
82926;SDS011;72788;40.218;44.486;2023-11-21T07:44:10;7.15;;;2.85;;
82926;SDS011;72788;40.218;44.486;2023-11-21T07:46:35;9.75;;;4.05;;
82926;SDS011;72788;40.218;44.486;2023-11-21T07:49:01;8.50;;;3.38;;
82926;SDS011;72788;40.218;44.486;2023-11-21T07:51:27;11.68;;;3.75;;
82926;SDS011;72788;40.218;44.486;2023-11-21T07:53:52;9.65;;;3.47;;
82926;SDS011;72788;40.218;44.486;2023-11-21T07:56:18;11.07;;;3.33;;
82926;SDS011;72788;40.218;44.486;2023-11-21T07:58:44;8.77;;;3.60;;
82926;SDS011;72788;40.218;44.486;2023-11-21T08:01:09;9.07;;;3.50;;
82926;SDS011;72788;40.218;44.486;2023-11-21T08:03:35;11.77;;;3.85;;
82926;SDS011;72788;40.218;44.486;2023-11-21T08:06:01;11.15;;;4.25;;
82926;SDS011;72788;40.218;44.486;2023-11-21T08:08:28;10.95;;;3.78;;
82926;SDS011;72788;40.218;44.486;2023-11-21T08:10:54;10.15;;;3.38;;
82926;SDS011;72788;40.218;44.486;2023-11-21T08:13:23;9.85;;;3.05;;
82926;SDS011;72788;40.218;44.486;2023-11-21T08:15:50;9.25;;;3.40;;
82926;SDS011;72788;40.218;44.486;2023-11-21T08:18:16;9.85;;;3.42;;
82926;SDS011;72788;40.218;44.486;2023-11-21T08:20:42;10.23;;;3.85;;
82926;SDS011;72788;40.218;44.486;2023-11-21T08:23:13;9.85;;;3.00;;
82926;SDS011;72788;40.218;44.486;2023-11-21T08:25:43;10.25;;;3.67;;
82926;SDS011;72788;40.218;44.486;2023-11-21T08:28:09;11.05;;;3.85;;
82926;SDS011;72788;40.218;44.486;2023-11-21T08:30:35;9.57;;;3.03;;
82926;SDS011;72788;40.218;44.486;2023-11-21T08:33:01;13.73;;;3.88;;
82926;SDS011;72788;40.218;44.486;2023-11-21T08:35:28;8.43;;;2.30;;
82926;SDS011;72788;40.218;44.486;2023-11-21T08:37:54;16.02;;;3.20;;
82926;SDS011;72788;40.218;44.486;2023-11-21T08:40:20;9.77;;;2.00;;
82926;SDS011;72788;40.218;44.486;2023-11-21T08:42:46;7.75;;;1.90;;
82926;SDS011;72788;40.218;44.486;2023-11-21T08:45:13;2.00;;;0.50;;
82926;SDS011;72788;40.218;44.486;2023-11-21T08:47:39;4.82;;;0.88;;
82926;SDS011;72788;40.218;44.486;2023-11-21T08:50:06;4.35;;;0.88;;
82926;SDS011;72788;40.218;44.486;2023-11-21T08:52:33;3.50;;;0.73;;
82926;SDS011;72788;40.218;44.486;2023-11-21T08:54:59;3.75;;;0.73;;
82926;SDS011;72788;40.218;44.486;2023-11-21T08:57:28;5.28;;;1.20;;
82926;SDS011;72788;40.218;44.486;2023-11-21T08:59:54;4.30;;;1.00;;
82926;SDS011;72788;40.218;44.486;2023-11-21T09:02:21;4.65;;;0.65;;
82926;SDS011;72788;40.218;44.486;2023-11-21T09:04:50;3.15;;;0.60;;
82926;SDS011;72788;40.218;44.486;2023-11-21T09:07:17;4.95;;;0.98;;
82926;SDS011;72788;40.218;44.486;2023-11-21T09:09:45;2.78;;;0.60;;
82926;SDS011;72788;40.218;44.486;2023-11-21T09:12:14;8.27;;;1.55;;
82926;SDS011;72788;40.218;44.486;2023-11-21T09:14:41;5.40;;;1.10;;
82926;SDS011;72788;40.218;44.486;2023-11-21T09:17:07;4.38;;;1.23;;
82926;SDS011;72788;40.218;44.486;2023-11-21T09:19:39;4.68;;;1.13;;
82926;SDS011;72788;40.218;44.486;2023-11-21T09:22:05;9.77;;;1.52;;
82926;SDS011;72788;40.218;44.486;2023-11-21T09:24:32;6.07;;;1.55;;
82926;SDS011;72788;40.218;44.486;2023-11-21T09:26:58;4.53;;;1.27;;
82926;SDS011;72788;40.218;44.486;2023-11-21T09:29:25;2.97;;;0.60;;
82926;SDS011;72788;40.218;44.486;2023-11-21T09:31:51;5.32;;;1.10;;
82926;SDS011;72788;40.218;44.486;2023-11-21T09:34:17;5.18;;;1.02;;
82926;SDS011;72788;40.218;44.486;2023-11-21T09:36:46;7.97;;;1.88;;
82926;SDS011;72788;40.218;44.486;2023-11-21T09:39:13;4.25;;;1.00;;
82926;SDS011;72788;40.218;44.486;2023-11-21T09:41:43;4.80;;;1.30;;
82926;SDS011;72788;40.218;44.486;2023-11-21T09:44:14;7.45;;;2.40;;
82926;SDS011;72788;40.218;44.486;2023-11-21T09:47:00;5.75;;;1.30;;
82926;SDS011;72788;40.218;44.486;2023-11-21T09:49:27;5.40;;;1.00;;
82926;SDS011;72788;40.218;44.486;2023-11-21T09:51:57;4.97;;;1.00;;
82926;SDS011;72788;40.218;44.486;2023-11-21T09:54:28;5.18;;;1.20;;
82926;SDS011;72788;40.218;44.486;2023-11-21T09:56:57;5.75;;;1.58;;
82926;SDS011;72788;40.218;44.486;2023-11-21T09:59:24;7.95;;;0.90;;
82926;SDS011;72788;40.218;44.486;2023-11-21T10:01:55;8.25;;;1.60;;
82926;SDS011;72788;40.218;44.486;2023-11-21T10:04:23;6.47;;;2.13;;
82926;SDS011;72788;40.218;44.486;2023-11-21T10:06:49;10.93;;;1.50;;
82926;SDS011;72788;40.218;44.486;2023-11-21T10:09:17;5.25;;;1.20;;
82926;SDS011;72788;40.218;44.486;2023-11-21T10:11:45;5.65;;;1.63;;
82926;SDS011;72788;40.218;44.486;2023-11-21T10:14:12;8.75;;;1.70;;
82926;SDS011;72788;40.218;44.486;2023-11-21T10:16:40;4.07;;;0.90;;
82926;SDS011;72788;40.218;44.486;2023-11-21T10:19:09;4.30;;;1.20;;
82926;SDS011;72788;40.218;44.486;2023-11-21T10:21:39;3.42;;;0.82;;
82926;SDS011;72788;40.218;44.486;2023-11-21T10:24:05;5.38;;;1.25;;
82926;SDS011;72788;40.218;44.486;2023-11-21T10:26:31;6.47;;;1.73;;
82926;SDS011;72788;40.218;44.486;2023-11-21T10:28:58;4.95;;;1.13;;
82926;SDS011;72788;40.218;44.486;2023-11-21T10:31:27;5.32;;;1.20;;
82926;SDS011;72788;40.218;44.486;2023-11-21T10:33:53;5.65;;;1.00;;
82926;SDS011;72788;40.218;44.486;2023-11-21T10:36:28;4.95;;;1.15;;
82926;SDS011;72788;40.218;44.486;2023-11-21T10:38:54;7.25;;;1.77;;
82926;SDS011;72788;40.218;44.486;2023-11-21T10:41:20;4.75;;;1.23;;
82926;SDS011;72788;40.218;44.486;2023-11-21T10:43:46;8.13;;;1.52;;
82926;SDS011;72788;40.218;44.486;2023-11-21T10:46:13;4.20;;;1.00;;
82926;SDS011;72788;40.218;44.486;2023-11-21T10:48:40;10.27;;;1.10;;
82926;SDS011;72788;40.218;44.486;2023-11-21T10:51:07;4.75;;;0.95;;
82926;SDS011;72788;40.218;44.486;2023-11-21T10:53:38;7.30;;;1.45;;
82926;SDS011;72788;40.218;44.486;2023-11-21T10:56:06;5.47;;;1.23;;
82926;SDS011;72788;40.218;44.486;2023-11-21T10:58:42;4.88;;;1.30;;
82926;SDS011;72788;40.218;44.486;2023-11-21T11:01:08;5.13;;;1.45;;
82926;SDS011;72788;40.218;44.486;2023-11-21T11:03:39;5.20;;;1.20;;
82926;SDS011;72788;40.218;44.486;2023-11-21T11:06:06;7.25;;;2.70;;
82926;SDS011;72788;40.218;44.486;2023-11-21T11:08:36;4.75;;;1.00;;
82926;SDS011;72788;40.218;44.486;2023-11-21T11:11:04;7.88;;;1.80;;
82926;SDS011;72788;40.218;44.486;2023-11-21T11:13:32;5.00;;;1.10;;
82926;SDS011;72788;40.218;44.486;2023-11-21T11:15:59;3.38;;;0.73;;
82926;SDS011;72788;40.218;44.486;2023-11-21T11:18:27;6.50;;;1.23;;
82926;SDS011;72788;40.218;44.486;2023-11-21T11:20:54;6.55;;;1.58;;
82926;SDS011;72788;40.218;44.486;2023-11-21T11:32:19;8.95;;;1.20;;
82926;SDS011;72788;40.218;44.486;2023-11-21T11:35:04;5.82;;;1.92;;
82926;SDS011;72788;40.218;44.486;2023-11-21T11:37:52;4.43;;;1.00;;
82926;SDS011;72788;40.218;44.486;2023-11-21T11:40:19;5.07;;;1.30;;
82926;SDS011;72788;40.218;44.486;2023-11-21T11:42:58;3.53;;;0.80;;
82926;SDS011;72788;40.218;44.486;2023-11-21T11:45:33;5.45;;;1.23;;
82926;SDS011;72788;40.218;44.486;2023-11-21T11:48:01;3.65;;;0.70;;
82926;SDS011;72788;40.218;44.486;2023-11-21T11:50:28;5.30;;;0.90;;
82926;SDS011;72788;40.218;44.486;2023-11-21T11:52:54;5.03;;;1.27;;
82926;SDS011;72788;40.218;44.486;2023-11-21T11:55:36;4.30;;;0.80;;
82926;SDS011;72788;40.218;44.486;2023-11-21T11:58:04;4.22;;;1.10;;
82926;SDS011;72788;40.218;44.486;2023-11-21T12:02:59;4.72;;;0.90;;
82926;SDS011;72788;40.218;44.486;2023-11-21T12:05:29;5.03;;;1.13;;
82926;SDS011;72788;40.218;44.486;2023-11-21T12:08:09;4.65;;;1.25;;
82926;SDS011;72788;40.218;44.486;2023-11-21T12:10:36;5.80;;;1.20;;
82926;SDS011;72788;40.218;44.486;2023-11-21T12:13:08;4.95;;;1.45;;
82926;SDS011;72788;40.218;44.486;2023-11-21T12:15:35;6.85;;;1.33;;
82926;SDS011;72788;40.218;44.486;2023-11-21T12:18:02;4.40;;;1.10;;
82926;SDS011;72788;40.218;44.486;2023-11-21T12:20:28;5.80;;;1.30;;
82926;SDS011;72788;40.218;44.486;2023-11-21T12:22:56;5.43;;;1.60;;
82926;SDS011;72788;40.218;44.486;2023-11-21T12:25:27;3.40;;;0.73;;
82926;SDS011;72788;40.218;44.486;2023-11-21T12:27:57;5.60;;;1.58;;
82926;SDS011;72788;40.218;44.486;2023-11-21T12:30:25;10.85;;;1.45;;
82926;SDS011;72788;40.218;44.486;2023-11-21T12:32:55;5.82;;;1.70;;
82926;SDS011;72788;40.218;44.486;2023-11-21T12:35:22;4.90;;;1.33;;
82926;SDS011;72788;40.218;44.486;2023-11-21T12:37:52;6.22;;;2.22;;
82926;SDS011;72788;40.218;44.486;2023-11-21T12:40:20;6.85;;;1.90;;
82926;SDS011;72788;40.218;44.486;2023-11-21T12:42:48;6.65;;;1.98;;
82926;SDS011;72788;40.218;44.486;2023-11-21T12:47:55;8.82;;;2.10;;
82926;SDS011;72788;40.218;44.486;2023-11-21T12:50:32;17.05;;;2.55;;
82926;SDS011;72788;40.218;44.486;2023-11-21T12:53:08;14.15;;;2.75;;
82926;SDS011;72788;40.218;44.486;2023-11-21T12:55:37;6.95;;;1.30;;
82926;SDS011;72788;40.218;44.486;2023-11-21T12:58:04;8.98;;;1.95;;
82926;SDS011;72788;40.218;44.486;2023-11-21T13:03:02;5.80;;;1.50;;
82926;SDS011;72788;40.218;44.486;2023-11-21T13:05:33;6.43;;;1.70;;
82926;SDS011;72788;40.218;44.486;2023-11-21T13:08:01;5.72;;;1.40;;
82926;SDS011;72788;40.218;44.486;2023-11-21T13:10:29;18.00;;;1.80;;
82926;SDS011;72788;40.218;44.486;2023-11-21T13:13:00;8.93;;;1.65;;
82926;SDS011;72788;40.218;44.486;2023-11-21T13:15:29;16.17;;;2.67;;
82926;SDS011;72788;40.218;44.486;2023-11-21T13:17:56;22.05;;;2.95;;
82926;SDS011;72788;40.218;44.486;2023-11-21T13:20:23;15.95;;;3.47;;
82926;SDS011;72788;40.218;44.486;2023-11-21T13:22:50;9.40;;;2.35;;
82926;SDS011;72788;40.218;44.486;2023-11-21T13:25:26;9.95;;;1.65;;
82926;SDS011;72788;40.218;44.486;2023-11-21T13:27:56;7.57;;;2.00;;
82926;SDS011;72788;40.218;44.486;2023-11-21T13:30:26;8.55;;;1.95;;
82926;SDS011;72788;40.218;44.486;2023-11-21T13:32:55;9.65;;;1.67;;
82926;SDS011;72788;40.218;44.486;2023-11-21T13:35:27;6.22;;;1.63;;
82926;SDS011;72788;40.218;44.486;2023-11-21T13:38:02;6.43;;;1.70;;
82926;SDS011;72788;40.218;44.486;2023-11-21T13:40:31;7.80;;;1.75;;
82926;SDS011;72788;40.218;44.486;2023-11-21T13:43:04;7.35;;;1.52;;
82926;SDS011;72788;40.218;44.486;2023-11-21T13:45:35;8.30;;;1.65;;
82926;SDS011;72788;40.218;44.486;2023-11-21T13:48:01;11.93;;;1.75;;
82926;SDS011;72788;40.218;44.486;2023-11-21T13:50:27;11.13;;;2.30;;
82926;SDS011;72788;40.218;44.486;2023-11-21T13:53:00;8.10;;;2.00;;
82926;SDS011;72788;40.218;44.486;2023-11-21T13:55:34;16.98;;;2.28;;
82926;SDS011;72788;40.218;44.486;2023-11-21T13:58:00;15.90;;;3.20;;
82926;SDS011;72788;40.218;44.486;2023-11-21T14:00:29;12.93;;;4.18;;
82926;SDS011;72788;40.218;44.486;2023-11-21T14:03:13;10.93;;;2.65;;
82926;SDS011;72788;40.218;44.486;2023-11-21T14:05:44;9.10;;;2.13;;
82926;SDS011;72788;40.218;44.486;2023-11-21T14:08:12;18.00;;;2.70;;
82926;SDS011;72788;40.218;44.486;2023-11-21T14:10:41;9.00;;;2.20;;
82926;SDS011;72788;40.218;44.486;2023-11-21T14:13:16;8.00;;;1.88;;
82926;SDS011;72788;40.218;44.486;2023-11-21T14:15:42;7.78;;;1.67;;
82926;SDS011;72788;40.218;44.486;2023-11-21T14:18:11;15.10;;;1.92;;
82926;SDS011;72788;40.218;44.486;2023-11-21T14:20:39;6.60;;;1.48;;
82926;SDS011;72788;40.218;44.486;2023-11-21T14:23:06;7.57;;;1.98;;
82926;SDS011;72788;40.218;44.486;2023-11-21T14:25:35;8.23;;;1.98;;
82926;SDS011;72788;40.218;44.486;2023-11-21T14:28:02;10.93;;;3.47;;
82926;SDS011;72788;40.218;44.486;2023-11-21T14:30:29;23.80;;;5.63;;
82926;SDS011;72788;40.218;44.486;2023-11-21T14:32:57;18.90;;;7.30;;
82926;SDS011;72788;40.218;44.486;2023-11-21T14:35:23;16.42;;;4.82;;
82926;SDS011;72788;40.218;44.486;2023-11-21T14:37:49;11.60;;;3.13;;
82926;SDS011;72788;40.218;44.486;2023-11-21T14:40:15;7.15;;;2.45;;
82926;SDS011;72788;40.218;44.486;2023-11-21T14:42:42;8.73;;;2.40;;
82926;SDS011;72788;40.218;44.486;2023-11-21T14:45:08;15.52;;;3.53;;
82926;SDS011;72788;40.218;44.486;2023-11-21T14:47:37;9.68;;;2.75;;
82926;SDS011;72788;40.218;44.486;2023-11-21T14:50:08;8.95;;;3.00;;